Time;durP1;ratioP1;P1;durP2;ratioP2;P2;SDS_P1;SDS_P2;PMS_P1;PMS_P2;Temp;Humidity;BMP_temperature;BMP_pressure;BME280_temperature;BME280_humidity;BME280_pressure;Samples;Min_cycle;Max_cycle;Signal;HPM_P1;HPM_P2
2023/06/03 03:17:05;;;;;;;6.03;2.42;;;15.90;75.30;;;;;;6170898;22;88579;-84
2023/06/03 03:19:31;;;;;;;8.40;2.72;;;15.80;76.10;;;;;;6193844;22;89381;-82
2023/06/03 03:21:58;;;;;;;6.05;2.33;;;15.80;75.80;;;;;;6221591;22;87411;-83
2023/06/03 03:24:24;;;;;;;7.25;2.03;;;15.80;76.00;;;;;;6220404;22;87446;-82
2023/06/03 03:26:50;;;;;;;6.38;2.10;;;15.90;76.00;;;;;;6220699;22;87125;-82
2023/06/03 03:29:17;;;;;;;8.25;3.45;;;15.90;75.70;;;;;;6220316;22;87554;-83
2023/06/03 03:31:43;;;;;;;7.95;2.38;;;15.90;75.60;;;;;;6221534;22;87337;-84
2023/06/03 03:34:09;;;;;;;11.90;2.55;;;16.00;75.10;;;;;;6193776;22;87483;-83
2023/06/03 03:36:36;;;;;;;11.68;2.60;;;16.10;74.80;;;;;;6220319;22;87359;-83
2023/06/03 03:39:04;;;;;;;7.70;2.80;;;16.10;75.10;;;;;;6218605;22;88595;-80
2023/06/03 03:41:30;;;;;;;7.03;2.40;;;16.10;74.80;;;;;;6219587;22;88656;-80
2023/06/03 03:43:56;;;;;;;8.25;2.65;;;16.10;74.60;;;;;;6219868;22;87324;-80
2023/06/03 03:46:22;;;;;;;12.27;2.33;;;16.10;74.40;;;;;;6221200;22;87346;-82
2023/06/03 03:48:47;;;;;;;6.82;3.00;;;16.10;74.50;;;;;;6219633;22;88049;-81
2023/06/03 03:51:14;;;;;;;8.35;2.80;;;16.10;74.50;;;;;;6231829;22;88278;-84
2023/06/03 03:53:45;;;;;;;9.25;2.22;;;16.10;74.50;;;;;;6244492;22;87388;-80
2023/06/03 03:56:17;;;;;;;7.60;2.63;;;16.30;74.20;;;;;;6219722;22;86543;-77
2023/06/03 03:58:43;;;;;;;6.68;2.47;;;16.50;73.60;;;;;;6219179;22;87325;-81
2023/06/03 04:01:18;;;;;;;7.60;2.60;;;16.80;72.70;;;;;;6218838;22;87214;-76
2023/06/03 04:03:46;;;;;;;8.63;2.78;;;17.10;71.70;;;;;;6216228;22;88289;-77
2023/06/03 04:06:14;;;;;;;8.55;2.20;;;17.30;71.60;;;;;;6218810;22;87239;-78
2023/06/03 04:08:45;;;;;;;9.90;2.85;;;17.50;70.20;;;;;;6218332;22;88776;-78
2023/06/03 04:11:22;;;;;;;9.00;2.80;;;17.80;69.40;;;;;;6218603;22;88876;-77
2023/06/03 04:13:49;;;;;;;7.25;2.90;;;18.10;68.40;;;;;;6219920;22;87179;-82
2023/06/03 04:16:41;;;;;;;8.52;2.63;;;18.50;67.80;;;;;;6217138;22;88839;-85
2023/06/03 04:19:14;;;;;;;9.02;3.33;;;18.70;66.50;;;;;;6188637;22;88572;-82
2023/06/03 04:21:39;;;;;;;8.38;3.22;;;18.60;66.40;;;;;;6188870;22;87928;-81
2023/06/03 04:24:05;;;;;;;8.27;2.63;;;18.40;66.90;;;;;;6189376;22;87307;-82
2023/06/03 04:26:31;;;;;;;11.05;2.95;;;18.20;67.40;;;;;;6189070;22;87441;-81
2023/06/03 04:28:57;;;;;;;8.35;2.83;;;18.00;68.20;;;;;;6187413;22;89644;-80
2023/06/03 04:31:22;;;;;;;8.07;3.25;;;18.10;68.60;;;;;;6188777;22;88365;-81
2023/06/03 04:33:49;;;;;;;9.90;3.33;;;18.60;68.10;;;;;;6188680;22;87445;-83
2023/06/03 04:36:15;;;;;;;8.95;3.17;;;19.30;66.10;;;;;;6189198;22;87401;-86
2023/06/03 04:38:41;;;;;;;7.95;2.95;;;20.00;64.30;;;;;;6189040;22;87686;-85
2023/06/03 04:41:10;;;;;;;8.82;3.10;;;20.60;62.30;;;;;;6188707;22;87334;-82
2023/06/03 04:43:38;;;;;;;7.53;3.35;;;21.30;60.60;;;;;;6188991;22;87165;-83
2023/06/03 04:46:06;;;;;;;9.23;3.22;;;21.90;58.90;;;;;;6189991;22;86672;-81
2023/06/03 04:48:33;;;;;;;7.50;2.90;;;22.30;57.30;;;;;;6187728;22;88365;-81
2023/06/03 04:51:01;;;;;;;8.50;3.33;;;22.90;56.70;;;;;;6188336;22;88092;-81
2023/06/03 04:53:27;;;;;;;7.45;3.30;;;23.30;55.90;;;;;;6187221;22;88085;-81
2023/06/03 04:55:52;;;;;;;8.10;3.95;;;23.90;54.40;;;;;;6188742;22;87243;-79
2023/06/03 04:58:18;;;;;;;7.45;3.65;;;24.20;53.10;;;;;;6188449;22;88321;-80
2023/06/03 05:00:45;;;;;;;6.43;2.65;;;24.20;53.00;;;;;;6187922;22;88273;-81
2023/06/03 05:03:10;;;;;;;8.80;3.28;;;24.60;53.40;;;;;;6188207;22;86893;-81
2023/06/03 05:05:43;;;;;;;8.45;3.42;;;25.20;51.80;;;;;;6188243;22;87579;-81
2023/06/03 05:08:12;;;;;;;7.03;3.25;;;25.70;50.70;;;;;;6188367;22;88013;-78
2023/06/03 05:10:38;;;;;;;7.68;3.20;;;26.10;50.10;;;;;;6188323;22;87677;-78
2023/06/03 05:13:06;;;;;;;8.98;3.80;;;26.90;49.30;;;;;;6187833;22;87519;-82
2023/06/03 05:15:33;;;;;;;8.25;3.50;;;27.70;47.70;;;;;;6190422;22;87226;-80
2023/06/03 05:18:02;;;;;;;7.03;3.75;;;28.10;46.70;;;;;;6187571;22;88303;-86
2023/06/03 05:20:30;;;;;;;6.53;3.20;;;28.10;46.20;;;;;;6191244;22;89235;-82
2023/06/03 05:22:55;;;;;;;7.10;3.40;;;28.20;46.10;;;;;;6188657;22;87235;-83
2023/06/03 05:25:22;;;;;;;8.57;3.85;;;28.60;46.10;;;;;;6188561;22;86959;-81
2023/06/03 05:27:48;;;;;;;7.93;3.75;;;29.20;45.10;;;;;;6188325;22;87564;-85
2023/06/03 05:30:14;;;;;;;8.02;3.72;;;29.40;44.60;;;;;;6187781;22;87312;-83
2023/06/03 05:32:41;;;;;;;7.90;4.03;;;29.60;44.00;;;;;;6162179;22;87296;-81
2023/06/03 05:35:09;;;;;;;6.25;3.42;;;30.20;43.40;;;;;;6190335;22;86568;-81
2023/06/03 05:37:34;;;;;;;9.35;3.92;;;30.10;43.60;;;;;;6191523;22;88614;-83
2023/06/03 05:40:00;;;;;;;6.55;3.65;;;31.00;43.50;;;;;;6189957;22;88059;-84
2023/06/03 05:42:26;;;;;;;7.47;3.85;;;31.00;42.20;;;;;;6160435;22;88618;-85
2023/06/03 05:44:51;;;;;;;6.25;3.45;;;30.40;43.40;;;;;;6189962;22;87277;-86
2023/06/03 05:47:17;;;;;;;7.05;3.55;;;30.00;43.40;;;;;;6187506;22;88901;-86
2023/06/03 05:49:42;;;;;;;7.18;3.55;;;28.90;44.30;;;;;;6189234;22;88288;-90
2023/06/03 05:52:08;;;;;;;7.43;3.95;;;27.40;46.10;;;;;;6190045;22;87327;-87
2023/06/03 05:54:34;;;;;;;10.60;3.50;;;26.30;48.40;;;;;;6189346;22;87007;-87
2023/06/03 05:56:59;;;;;;;9.35;3.95;;;25.70;49.80;;;;;;6189529;22;88018;-88
2023/06/03 05:59:25;;;;;;;6.90;2.55;;;26.00;50.50;;;;;;6162247;22;89686;-82
2023/06/03 06:01:51;;;;;;;8.63;3.83;;;26.20;49.90;;;;;;6189408;22;87517;-83
2023/06/03 06:04:17;;;;;;;10.07;4.38;;;26.00;50.50;;;;;;6201014;22;86951;-86
2023/06/03 06:06:43;;;;;;;7.38;3.67;;;25.90;50.70;;;;;;6202100;22;88134;-83
2023/06/03 06:09:08;;;;;;;10.15;3.67;;;26.00;50.30;;;;;;6189364;22;88722;-83
2023/06/03 06:11:34;;;;;;;6.88;3.67;;;26.80;49.60;;;;;;6189402;22;87326;-84
2023/06/03 06:14:00;;;;;;;9.00;4.75;;;27.00;47.80;;;;;;6190024;22;87207;-84
2023/06/03 06:16:25;;;;;;;9.45;3.85;;;27.10;48.20;;;;;;6188451;22;88126;-84
2023/06/03 06:18:51;;;;;;;10.85;3.60;;;27.10;49.00;;;;;;6188638;22;87974;-84
2023/06/03 06:21:17;;;;;;;5.85;3.53;;;27.90;47.70;;;;;;6188451;22;87435;-81
2023/06/03 06:23:43;;;;;;;8.60;4.72;;;28.60;46.20;;;;;;6190514;22;86993;-81
2023/06/03 06:26:09;;;;;;;8.48;4.43;;;29.20;45.80;;;;;;6188761;22;87496;-81
2023/06/03 06:28:34;;;;;;;8.68;4.28;;;30.10;44.80;;;;;;6188339;22;87405;-82
2023/06/03 06:31:04;;;;;;;9.27;4.25;;;31.50;43.60;;;;;;6190117;22;88228;-87
2023/06/03 06:33:32;;;;;;;10.45;4.85;;;32.40;41.10;;;;;;6190706;22;87018;-86
2023/06/03 06:36:00;;;;;;;9.73;4.05;;;33.10;40.30;;;;;;6190848;22;88363;-88
2023/06/03 06:38:26;;;;;;;12.80;4.60;;;33.70;39.20;;;;;;6192434;22;87593;-86
2023/06/03 06:40:53;;;;;;;8.77;4.55;;;34.20;39.40;;;;;;6193245;22;87342;-88
2023/06/03 06:43:21;;;;;;;9.73;5.80;;;34.40;38.50;;;;;;6193614;22;87028;-88
2023/06/03 06:45:47;;;;;;;8.38;4.82;;;34.80;38.60;;;;;;6194214;22;88142;-89
2023/06/03 06:48:13;;;;;;;7.63;4.75;;;35.00;38.10;;;;;;6195602;22;87871;-86
2023/06/03 06:50:55;;;;;;;10.82;5.82;;;35.10;37.90;;;;;;6195192;22;86909;-87
2023/06/03 06:53:24;;;;;;;9.05;5.10;;;34.50;38.00;;;;;;6195350;22;87269;-87
2023/06/03 06:56:01;;;;;;;8.27;5.15;;;35.30;38.20;;;;;;6194358;22;89027;-89
2023/06/03 06:58:34;;;;;;;12.50;5.43;;;35.50;36.90;;;;;;6194480;22;88723;-87
2023/06/03 07:01:00;;;;;;;8.27;5.20;;;35.70;37.30;;;;;;6195660;22;86970;-86
2023/06/03 07:03:26;;;;;;;10.68;5.53;;;35.80;36.40;;;;;;6196007;22;87589;-88
2023/06/03 07:05:53;;;;;;;8.05;5.93;;;36.00;37.30;;;;;;6195807;22;88305;-87
2023/06/03 07:08:23;;;;;;;7.15;5.30;;;36.60;37.00;;;;;;6195042;22;88316;-88
2023/06/03 07:10:50;;;;;;;8.95;6.25;;;36.70;35.90;;;;;;6191627;22;86977;-84
2023/06/03 07:13:15;;;;;;;9.63;5.75;;;36.10;36.50;;;;;;6187452;22;86860;-85
2023/06/03 07:15:42;;;;;;;9.13;5.72;;;35.80;35.80;;;;;;6186041;22;88322;-86
2023/06/03 07:18:09;;;;;;;10.65;6.25;;;35.90;36.20;;;;;;6188614;22;88166;-84
2023/06/03 07:20:40;;;;;;;8.02;5.47;;;35.90;36.50;;;;;;6186516;22;88418;-84
2023/06/03 07:23:10;;;;;;;10.80;5.90;;;35.60;36.40;;;;;;6187121;22;87489;-85
2023/06/03 07:25:40;;;;;;;10.30;6.35;;;36.40;36.00;;;;;;6187540;22;88483;-84
2023/06/03 07:28:34;;;;;;;9.77;5.80;;;37.10;35.50;;;;;;6187754;22;87654;-84
2023/06/03 07:31:04;;;;;;;14.38;6.75;;;37.90;35.20;;;;;;6183348;22;87319;-86
2023/06/03 07:33:36;;;;;;;8.27;5.63;;;37.50;34.80;;;;;;6186521;22;86974;-84
2023/06/03 07:36:03;;;;;;;12.07;6.53;;;37.60;35.10;;;;;;6187304;22;88075;-84
2023/06/03 07:38:37;;;;;;;12.20;6.82;;;37.60;35.10;;;;;;6186625;22;87744;-84
2023/06/03 07:41:07;;;;;;;9.25;7.80;;;37.80;34.50;;;;;;6188583;22;87000;-84
2023/06/03 07:43:33;;;;;;;10.77;7.03;;;38.60;34.80;;;;;;6187811;22;87506;-83
2023/06/03 07:46:09;;;;;;;12.48;7.80;;;38.10;33.70;;;;;;6184003;22;89521;-80
2023/06/03 07:48:38;;;;;;;12.98;7.60;;;38.30;33.80;;;;;;6183784;22;88596;-83
2023/06/03 07:51:08;;;;;;;10.75;6.55;;;38.50;34.10;;;;;;6183519;22;87431;-84
2023/06/03 07:53:36;;;;;;;12.65;7.90;;;38.50;33.80;;;;;;6183867;22;87608;-83
2023/06/03 07:56:12;;;;;;;10.52;6.65;;;38.00;33.40;;;;;;6185551;22;89082;-85
2023/06/03 07:58:38;;;;;;;13.63;7.70;;;38.80;33.70;;;;;;6185947;22;88147;-84
2023/06/03 08:01:05;;;;;;;12.85;7.25;;;38.70;33.50;;;;;;6186006;22;87311;-88
2023/06/03 08:03:32;;;;;;;10.45;7.40;;;38.90;32.90;;;;;;6186725;22;86312;-84
2023/06/03 08:05:58;;;;;;;11.20;7.70;;;38.60;33.50;;;;;;6187958;22;87819;-75
2023/06/03 08:08:33;;;;;;;12.85;7.18;;;38.50;33.60;;;;;;6187389;22;87845;-75
2023/06/03 08:11:00;;;;;;;11.38;7.50;;;38.30;33.10;;;;;;6187712;22;88489;-74
2023/06/03 08:13:26;;;;;;;9.77;7.25;;;38.30;33.00;;;;;;6186068;22;87383;-76
2023/06/03 08:15:52;;;;;;;9.52;6.70;;;38.10;33.30;;;;;;6186447;22;87309;-74
2023/06/03 08:18:44;;;;;;;10.60;7.85;;;37.80;33.70;;;;;;6183879;22;87390;-75
2023/06/03 08:21:10;;;;;;;11.60;7.22;;;37.80;33.10;;;;;;6187999;22;87302;-74
2023/06/03 08:23:37;;;;;;;8.60;6.95;;;37.70;33.00;;;;;;6187493;22;87544;-74
2023/06/03 08:26:03;;;;;;;9.15;7.57;;;37.60;32.90;;;;;;6180910;22;87495;-74
2023/06/03 08:28:28;;;;;;;10.65;7.55;;;37.90;32.70;;;;;;6185752;22;87746;-75
2023/06/03 08:30:55;;;;;;;12.48;7.60;;;37.90;33.40;;;;;;6183657;22;87325;-84
2023/06/03 08:33:21;;;;;;;9.80;7.32;;;38.70;32.90;;;;;;6187019;22;87287;-82
2023/06/03 08:35:50;;;;;;;11.32;8.35;;;39.60;32.60;;;;;;6186074;22;88932;-84
2023/06/03 08:38:16;;;;;;;14.68;7.55;;;40.60;31.10;;;;;;6183970;22;87346;-83
2023/06/03 08:40:51;;;;;;;10.25;5.85;;;40.40;31.70;;;;;;6188039;22;87632;-84
2023/06/03 08:43:20;;;;;;;11.93;7.32;;;40.80;31.20;;;;;;6183146;22;87193;-82
2023/06/03 08:45:55;;;;;;;10.05;8.10;;;40.90;30.90;;;;;;6185550;22;87946;-82
2023/06/03 08:48:24;;;;;;;10.85;5.55;;;40.60;30.80;;;;;;6185855;22;88442;-88
2023/06/03 08:51:02;;;;;;;11.98;8.25;;;39.80;30.60;;;;;;6186452;22;87426;-83
2023/06/03 08:53:33;;;;;;;10.32;7.57;;;40.20;31.80;;;;;;6187364;22;86954;-83
2023/06/03 08:56:02;;;;;;;9.63;8.63;;;40.60;31.30;;;;;;6185613;22;88101;-83
2023/06/03 08:58:35;;;;;;;11.40;7.75;;;40.60;31.70;;;;;;6186132;22;87002;-82
2023/06/03 09:01:02;;;;;;;9.77;7.28;;;40.60;32.00;;;;;;6183834;22;88437;-83
2023/06/03 09:03:29;;;;;;;12.18;8.23;;;41.30;31.40;;;;;;6186341;22;87294;-84
2023/06/03 09:05:56;;;;;;;10.93;8.27;;;41.90;31.40;;;;;;6184596;22;87737;-87
2023/06/03 09:08:22;;;;;;;10.65;7.97;;;41.90;30.70;;;;;;6183817;22;89499;-82
2023/06/03 09:10:49;;;;;;;13.93;9.30;;;42.30;30.90;;;;;;6184650;22;87572;-84
2023/06/03 09:13:16;;;;;;;11.15;9.00;;;42.60;30.60;;;;;;6186890;22;87399;-85
2023/06/03 09:15:43;;;;;;;12.30;8.82;;;42.70;30.00;;;;;;6186836;22;87967;-84
2023/06/03 09:18:09;;;;;;;9.98;7.95;;;42.10;30.90;;;;;;6184937;22;87924;-85
2023/06/03 09:20:36;;;;;;;9.90;8.45;;;42.00;31.30;;;;;;6186161;22;87236;-82
2023/06/03 09:23:02;;;;;;;11.45;8.40;;;42.00;30.30;;;;;;6187223;22;87245;-85
2023/06/03 09:25:28;;;;;;;9.02;6.50;;;42.90;30.80;;;;;;6185669;22;89247;-85
2023/06/03 09:27:54;;;;;;;14.23;8.82;;;42.00;30.30;;;;;;6185843;22;88676;-84
2023/06/03 09:30:21;;;;;;;13.02;8.75;;;42.40;31.00;;;;;;6186710;22;87315;-86
2023/06/03 09:32:46;;;;;;;9.55;7.65;;;42.10;31.50;;;;;;6158928;22;87693;-85
2023/06/03 09:35:13;;;;;;;12.13;8.43;;;42.20;31.40;;;;;;6186918;22;88022;-85
2023/06/03 09:37:56;;;;;;;7.03;5.53;;;41.40;31.40;;;;;;6183070;22;87832;-85
2023/06/03 09:40:27;;;;;;;10.82;8.68;;;41.70;31.70;;;;;;6186471;22;87422;-82
2023/06/03 09:42:53;;;;;;;9.65;8.10;;;42.10;31.30;;;;;;6186083;22;86612;-85
2023/06/03 09:45:36;;;;;;;9.23;7.85;;;41.50;30.30;;;;;;6184033;22;88091;-83
2023/06/03 09:48:02;;;;;;;7.57;6.15;;;41.90;31.60;;;;;;6182312;22;87896;-83
2023/06/03 09:50:33;;;;;;;16.20;8.70;;;42.00;31.50;;;;;;6185852;22;88002;-86
2023/06/03 09:53:01;;;;;;;9.23;8.00;;;42.10;31.70;;;;;;6185624;22;87534;-82
2023/06/03 09:55:34;;;;;;;12.98;7.57;;;41.40;31.80;;;;;;6185602;22;87491;-85
2023/06/03 09:58:09;;;;;;;10.13;9.13;;;41.20;32.00;;;;;;6182846;22;87682;-83
2023/06/03 10:00:49;;;;;;;11.23;8.23;;;40.60;32.80;;;;;;6186363;22;87275;-83
2023/06/03 10:03:18;;;;;;;8.90;7.00;;;39.40;33.00;;;;;;6186173;22;87259;-83
2023/06/03 10:05:44;;;;;;;13.77;6.43;;;37.80;34.60;;;;;;6185133;22;88109;-81
2023/06/03 10:08:10;;;;;;;8.68;6.15;;;36.30;36.70;;;;;;6184141;22;87513;-81
2023/06/03 10:10:56;;;;;;;13.98;7.00;;;35.20;38.10;;;;;;6186558;22;87456;-80
2023/06/03 10:13:23;;;;;;;10.05;6.35;;;34.40;38.50;;;;;;6187004;22;87151;-81
2023/06/03 10:15:51;;;;;;;9.85;5.75;;;33.70;40.30;;;;;;6184862;22;89271;-81
2023/06/03 10:18:17;;;;;;;11.80;6.03;;;32.90;41.40;;;;;;6182983;22;89217;-84
2023/06/03 10:20:43;;;;;;;13.52;5.72;;;32.40;41.70;;;;;;6187696;22;87294;-81
2023/06/03 10:23:10;;;;;;;8.75;6.32;;;32.20;43.00;;;;;;6186306;22;87453;-81
2023/06/03 10:25:46;;;;;;;8.40;5.63;;;32.10;43.10;;;;;;6187305;22;87717;-83
2023/06/03 10:28:13;;;;;;;11.82;5.88;;;31.50;42.90;;;;;;6184402;22;87330;-81
2023/06/03 10:30:40;;;;;;;9.98;6.10;;;31.30;44.20;;;;;;6191284;22;87296;-83
2023/06/03 10:33:09;;;;;;;8.95;5.53;;;30.90;45.00;;;;;;6196645;22;86729;-81
2023/06/03 10:35:36;;;;;;;;;;;30.70;45.60;;;;;;6186233;22;88268;-81
2023/06/03 10:38:07;;;;;;;11.60;5.78;;;30.30;45.40;;;;;;6184068;22;87382;-80
2023/06/03 10:40:34;;;;;;;11.07;5.55;;;29.90;47.60;;;;;;6186701;22;88184;-81
2023/06/03 10:42:59;;;;;;;10.48;5.72;;;29.70;47.00;;;;;;6186837;22;87469;-81
2023/06/03 10:45:26;;;;;;;9.05;5.72;;;29.50;48.10;;;;;;6187158;22;88674;-83
2023/06/03 10:47:59;;;;;;;11.70;5.93;;;29.40;48.50;;;;;;6159059;22;91051;-81
2023/06/03 10:50:59;;;;;;;7.32;5.05;;;29.30;47.10;;;;;;6186204;22;87455;-81
2023/06/03 10:53:27;;;;;;;10.18;5.30;;;29.40;47.90;;;;;;6186892;22;87350;-81
2023/06/03 10:56:21;;;;;;;9.00;4.70;;;29.40;48.00;;;;;;6186406;22;88009;-81
2023/06/03 10:58:58;;;;;;;8.73;5.43;;;29.20;47.50;;;;;;6186596;22;87332;-82
2023/06/03 11:01:43;;;;;;;9.80;5.50;;;28.90;48.70;;;;;;6184719;22;86949;-81
2023/06/03 11:04:09;;;;;;;12.15;5.38;;;28.90;49.30;;;;;;6186486;22;87374;-81
2023/06/03 11:06:35;;;;;;;9.80;5.90;;;28.90;49.10;;;;;;6187019;22;89470;-79
2023/06/03 11:09:04;;;;;;;12.57;4.18;;;28.90;48.20;;;;;;6159319;22;90600;-80
2023/06/03 11:11:42;;;;;;;8.25;5.18;;;28.60;49.30;;;;;;6186593;22;87453;-80
2023/06/03 11:14:09;;;;;;;17.45;5.13;;;28.70;50.00;;;;;;6187145;22;87343;-83
2023/06/03 11:16:57;;;;;;;11.40;5.97;;;28.90;51.30;;;;;;6183794;22;88243;-83
2023/06/03 11:19:36;;;;;;;11.93;6.03;;;28.90;49.20;;;;;;6166199;22;87472;-81
2023/06/03 11:22:07;;;;;;;9.32;5.38;;;28.90;48.90;;;;;;6185513;22;88288;-83
2023/06/03 11:24:41;;;;;;;9.10;5.28;;;28.80;49.20;;;;;;6187835;22;86759;-84
2023/06/03 11:27:10;;;;;;;9.80;4.80;;;28.80;50.20;;;;;;6186315;22;88228;-82
2023/06/03 11:29:56;;;;;;;13.43;5.30;;;28.90;50.80;;;;;;6183163;22;88177;-83
2023/06/03 11:32:26;;;;;;;8.80;5.28;;;29.00;50.60;;;;;;6180376;22;88564;-86
2023/06/03 11:35:11;;;;;;;9.13;5.50;;;28.80;49.70;;;;;;6181274;22;87201;-84
2023/06/03 11:37:46;;;;;;;10.15;5.05;;;28.70;50.50;;;;;;6181594;22;87930;-81
2023/06/03 11:40:20;;;;;;;10.88;4.93;;;28.70;49.70;;;;;;6183978;22;87628;-81
2023/06/03 11:42:51;;;;;;;13.90;5.25;;;28.80;49.60;;;;;;6180921;22;87703;-81
2023/06/03 11:45:20;;;;;;;7.18;3.97;;;28.90;50.20;;;;;;6182652;22;87523;-82
2023/06/03 11:47:54;;;;;;;10.93;5.50;;;28.80;50.90;;;;;;6182161;22;89005;-81
2023/06/03 11:50:24;;;;;;;10.23;5.63;;;28.70;49.50;;;;;;6179135;22;87981;-84
2023/06/03 11:52:51;;;;;;;11.40;5.03;;;28.70;50.90;;;;;;6181057;22;87396;-81
2023/06/03 11:55:27;;;;;;;7.55;4.65;;;28.70;50.60;;;;;;6182128;22;87968;-85
2023/06/03 11:58:00;;;;;;;11.60;5.65;;;28.70;50.40;;;;;;6179768;22;89383;-82
2023/06/03 12:00:26;;;;;;;12.82;5.35;;;28.70;49.40;;;;;;6183444;22;88117;-81
2023/06/03 12:02:53;;;;;;;9.77;4.72;;;28.70;51.10;;;;;;6181669;22;87478;-81
2023/06/03 12:05:20;;;;;;;9.85;5.95;;;28.70;50.80;;;;;;6156401;22;87363;-81
2023/06/03 12:08:04;;;;;;;7.55;3.97;;;28.80;47.30;;;;;;6182385;22;88168;-84
2023/06/03 12:10:40;;;;;;;10.98;4.65;;;28.90;50.40;;;;;;6180523;22;87946;-82
2023/06/03 12:13:05;;;;;;;7.63;4.40;;;28.90;48.90;;;;;;6183876;22;87257;-82
2023/06/03 12:15:31;;;;;;;7.05;4.50;;;28.80;50.40;;;;;;6183808;22;87134;-81
2023/06/03 12:18:03;;;;;;;10.70;4.85;;;28.80;49.30;;;;;;6179541;22;87573;-82
2023/06/03 12:20:29;;;;;;;7.75;4.18;;;28.70;49.60;;;;;;6181795;22;88152;-86
2023/06/03 12:23:05;;;;;;;8.13;4.78;;;28.60;49.30;;;;;;6184006;22;88483;-81
2023/06/03 12:25:33;;;;;;;10.20;4.97;;;28.60;49.50;;;;;;6183858;22;87650;-83
2023/06/03 12:28:18;;;;;;;8.75;5.20;;;28.70;50.10;;;;;;6184068;22;87675;-82
2023/06/03 12:30:45;;;;;;;9.82;4.18;;;28.80;47.90;;;;;;6183094;22;88827;-83
2023/06/03 12:33:10;;;;;;;10.25;4.45;;;28.90;48.00;;;;;;6180795;22;87534;-83
2023/06/03 12:35:37;;;;;;;9.57;4.00;;;28.90;48.50;;;;;;6156063;22;87614;-81
2023/06/03 12:38:07;;;;;;;7.30;3.85;;;28.90;47.50;;;;;;6183438;22;88809;-80
2023/06/03 12:40:33;;;;;;;8.18;3.67;;;28.90;48.80;;;;;;6184142;22;89283;-81
2023/06/03 12:43:00;;;;;;;6.88;3.88;;;29.00;47.60;;;;;;6184623;22;87518;-83
2023/06/03 12:45:26;;;;;;;10.90;4.45;;;29.00;49.10;;;;;;6186715;22;87552;-87
2023/06/03 12:47:53;;;;;;;7.25;4.78;;;29.00;46.00;;;;;;6190407;22;88999;-80
2023/06/03 12:50:20;;;;;;;8.35;4.22;;;29.00;47.30;;;;;;6182479;22;88815;-87
2023/06/03 12:52:47;;;;;;;11.90;4.53;;;28.90;48.40;;;;;;6155106;22;87366;-85
2023/06/03 12:55:14;;;;;;;7.93;3.22;;;28.80;49.10;;;;;;6182111;22;89299;-84
2023/06/03 12:57:42;;;;;;;6.53;4.05;;;28.90;47.80;;;;;;6185333;22;88137;-81
2023/06/03 13:00:15;;;;;;;6.95;3.92;;;28.90;46.60;;;;;;6183429;22;87672;-79
2023/06/03 13:02:47;;;;;;;8.05;3.95;;;29.00;47.90;;;;;;6183710;22;87458;-83
2023/06/03 13:05:14;;;;;;;7.05;3.72;;;29.10;46.50;;;;;;6184982;22;86461;-82
2023/06/03 13:07:43;;;;;;;10.38;4.43;;;29.00;47.40;;;;;;6184221;22;87717;-78
2023/06/03 13:10:10;;;;;;;6.80;3.95;;;28.90;49.30;;;;;;6183780;22;87698;-81
2023/06/03 13:12:37;;;;;;;11.90;4.35;;;28.90;47.40;;;;;;6182558;22;88455;-82
2023/06/03 13:15:04;;;;;;;7.85;2.83;;;29.00;48.60;;;;;;6186305;22;87286;-84
2023/06/03 13:17:33;;;;;;;9.43;3.83;;;29.00;48.80;;;;;;6184078;22;88661;-81
2023/06/03 13:19:59;;;;;;;9.68;3.90;;;29.10;47.50;;;;;;6186978;22;88422;-81
2023/06/03 13:22:26;;;;;;;7.90;3.50;;;29.30;47.40;;;;;;6186995;22;87477;-82
2023/06/03 13:24:53;;;;;;;8.27;4.38;;;29.20;46.80;;;;;;6186754;22;87389;-80
2023/06/03 13:27:22;;;;;;;11.90;3.70;;;29.00;47.80;;;;;;6186838;22;87599;-83
2023/06/03 13:29:48;;;;;;;8.45;3.95;;;29.00;49.50;;;;;;6187404;22;88247;-82
2023/06/03 13:32:15;;;;;;;17.02;4.40;;;29.10;48.90;;;;;;6187800;22;87318;-80
2023/06/03 13:34:42;;;;;;;6.47;3.55;;;29.10;49.60;;;;;;6188284;22;87084;-82
2023/06/03 13:37:08;;;;;;;6.82;4.03;;;29.10;47.40;;;;;;6186476;22;88501;-80
2023/06/03 13:39:35;;;;;;;8.95;3.63;;;29.20;48.10;;;;;;6186560;22;89075;-82
2023/06/03 13:42:01;;;;;;;11.15;3.53;;;29.20;46.50;;;;;;6187441;22;87485;-80
2023/06/03 13:44:29;;;;;;;5.78;3.60;;;29.20;47.10;;;;;;6186123;22;87428;-86
2023/06/03 13:46:57;;;;;;;9.82;3.20;;;29.30;46.80;;;;;;6186306;22;88661;-81
2023/06/03 13:49:22;;;;;;;11.70;3.75;;;29.20;45.80;;;;;;6185178;22;87957;-81
2023/06/03 13:51:48;;;;;;;7.88;3.30;;;29.10;46.10;;;;;;6186684;22;87723;-82
2023/06/03 13:54:14;;;;;;;5.97;3.03;;;29.00;46.70;;;;;;6184979;22;86873;-84
2023/06/03 13:56:42;;;;;;;9.40;3.60;;;28.90;46.80;;;;;;6183289;22;88592;-82
2023/06/03 13:59:08;;;;;;;6.85;4.00;;;28.90;47.00;;;;;;6186405;22;87352;-82
2023/06/03 14:01:34;;;;;;;7.65;4.22;;;29.00;46.30;;;;;;6187646;22;88326;-82
2023/06/03 14:04:00;;;;;;;8.00;3.83;;;29.00;46.20;;;;;;6188930;22;87302;-81
2023/06/03 14:06:25;;;;;;;8.00;3.75;;;29.00;45.80;;;;;;6187981;22;88139;-81
2023/06/03 14:08:51;;;;;;;6.75;3.40;;;29.00;46.10;;;;;;6188562;22;87814;-81
2023/06/03 14:11:17;;;;;;;5.47;3.25;;;29.00;45.80;;;;;;6188020;22;87269;-83
2023/06/03 14:13:43;;;;;;;8.63;3.17;;;28.80;45.80;;;;;;6188507;22;87395;-82
2023/06/03 14:16:09;;;;;;;6.68;3.42;;;28.70;45.50;;;;;;6186940;22;87855;-83
2023/06/03 14:18:34;;;;;;;9.65;3.63;;;28.70;46.60;;;;;;6188561;22;88037;-82
2023/06/03 14:21:00;;;;;;;9.32;3.55;;;28.70;47.40;;;;;;6187912;22;87331;-80
2023/06/03 14:23:26;;;;;;;6.60;3.47;;;28.70;46.00;;;;;;6188107;22;87427;-83
2023/06/03 14:25:51;;;;;;;11.32;2.97;;;28.60;47.10;;;;;;6187602;22;89040;-82
2023/06/03 14:28:17;;;;;;;6.97;3.78;;;28.60;45.90;;;;;;6187782;22;89320;-81
2023/06/03 14:30:43;;;;;;;6.53;3.13;;;28.50;45.50;;;;;;6187732;22;87355;-81
2023/06/03 14:33:09;;;;;;;5.38;3.33;;;28.50;47.40;;;;;;6188414;22;87085;-81
2023/06/03 14:35:35;;;;;;;5.88;3.38;;;28.60;47.00;;;;;;6188061;22;87551;-84
2023/06/03 14:38:00;;;;;;;9.77;3.70;;;28.60;45.90;;;;;;6187884;22;88857;-81
2023/06/03 14:40:26;;;;;;;6.95;3.42;;;28.70;46.80;;;;;;6161129;22;87154;-82
2023/06/03 14:42:52;;;;;;;8.15;3.10;;;28.70;45.50;;;;;;6189074;22;86677;-82
2023/06/03 14:45:18;;;;;;;7.82;3.42;;;28.60;45.50;;;;;;6187773;22;88257;-82
2023/06/03 14:47:43;;;;;;;9.40;2.75;;;28.70;45.60;;;;;;6188180;22;87160;-84
2023/06/03 14:50:09;;;;;;;5.00;3.42;;;28.70;45.50;;;;;;6187567;22;88218;-80
2023/06/03 14:52:37;;;;;;;7.00;3.75;;;28.60;46.00;;;;;;6188555;22;87260;-82
2023/06/03 14:55:03;;;;;;;7.40;3.55;;;28.60;44.90;;;;;;6192676;22;87616;-80
2023/06/03 14:57:29;;;;;;;6.60;2.92;;;28.50;46.10;;;;;;6190327;22;87537;-83
2023/06/03 14:59:55;;;;;;;5.03;2.90;;;28.40;45.60;;;;;;6188186;22;86935;-80
2023/06/03 15:02:20;;;;;;;7.18;3.40;;;28.30;45.30;;;;;;6188463;22;87441;-80
2023/06/03 15:04:46;;;;;;;8.38;3.45;;;28.30;45.90;;;;;;6187062;22;88454;-79
2023/06/03 15:07:14;;;;;;;7.53;3.55;;;28.20;45.40;;;;;;6188282;22;87972;-81
2023/06/03 15:09:40;;;;;;;6.32;3.60;;;28.10;46.80;;;;;;6188310;22;86996;-84
2023/06/03 15:12:06;;;;;;;8.40;3.28;;;28.10;45.80;;;;;;6187695;22;87270;-83
2023/06/03 15:14:32;;;;;;;7.38;3.20;;;28.00;46.40;;;;;;6187792;22;88521;-82
2023/06/03 15:16:58;;;;;;;7.57;3.33;;;28.00;47.10;;;;;;6187103;22;89049;-83
2023/06/03 15:19:24;;;;;;;7.32;3.30;;;28.20;46.20;;;;;;6187732;22;87340;-82
2023/06/03 15:21:50;;;;;;;6.57;4.13;;;28.30;47.40;;;;;;6188352;22;87278;-83
2023/06/03 15:24:15;;;;;;;6.57;3.05;;;28.30;45.70;;;;;;6187526;22;89071;-81
2023/06/03 15:26:44;;;;;;;11.35;3.53;;;28.30;45.90;;;;;;6188217;22;87739;-81
2023/06/03 15:29:10;;;;;;;9.85;3.42;;;28.30;45.10;;;;;;6187795;22;88231;-82
2023/06/03 15:31:36;;;;;;;5.90;3.13;;;28.30;47.00;;;;;;6188216;22;86669;-82
2023/06/03 15:34:02;;;;;;;10.82;4.22;;;28.30;47.40;;;;;;6188196;22;88158;-83
2023/06/03 15:36:28;;;;;;;7.38;3.13;;;28.30;45.60;;;;;;6187855;22;88485;-81
2023/06/03 15:38:53;;;;;;;9.32;3.78;;;28.30;45.30;;;;;;6187735;22;87986;-81
2023/06/03 15:41:20;;;;;;;8.60;3.55;;;28.30;44.80;;;;;;6187850;22;87257;-83
2023/06/03 15:43:46;;;;;;;9.32;3.30;;;28.30;44.70;;;;;;6188114;22;88116;-80
2023/06/03 15:46:11;;;;;;;9.68;2.58;;;28.20;45.30;;;;;;6187651;22;87657;-80
2023/06/03 15:48:37;;;;;;;8.73;3.35;;;28.30;45.10;;;;;;6161267;22;87344;-80
2023/06/03 15:51:03;;;;;;;8.00;3.30;;;28.10;45.00;;;;;;6187760;22;87215;-81
2023/06/03 15:53:28;;;;;;;6.80;2.47;;;27.90;44.70;;;;;;6187798;22;88417;-82
2023/06/03 15:55:54;;;;;;;7.50;2.88;;;27.90;46.20;;;;;;6187970;22;86438;-82
2023/06/03 15:58:20;;;;;;;8.10;2.85;;;27.90;46.40;;;;;;6187175;22;87406;-81
2023/06/03 16:00:45;;;;;;;16.48;4.30;;;27.90;46.50;;;;;;6188180;22;87210;-81
2023/06/03 16:03:11;;;;;;;5.78;3.63;;;27.80;47.10;;;;;;6186815;22;89006;-82
2023/06/03 16:05:37;;;;;;;6.35;3.08;;;27.70;46.20;;;;;;6187445;22;88247;-81